Shonto, Arizona
Current Conditions -  °F | °C
As of 6:53 PM on Friday 24 Oct 2014 (Local Time) from KPGA Reporting Station
Clear Clear  
Wind Chill: 69°   Ceiling: Unl
Heat Index: 69°   Visibility: 10mi
Dew Point: 37°   Wind: 0mph
Humidity: 31%   Direction: NA
Pressure: 30.15"   Gusts: NA
Location:  36.59°N, 110.65°W
Report Text: KPGA 250053Z AUTO 00000KT 10SM CLR 21/03 A3015 RMK AO2 SLP170 T02060028
Loading
Personal Weather Stations






























Interactive Weather Map
Tropical Storm Tracking
New forecast layout! Learn more

10-Day Weather Forecast

Advertisements
Track Severe Weather on mobile